createdAt,value
2022-12-14T00:03:49.971Z,-1.73
2022-12-14T00:08:48.732Z,-1.73
2022-12-14T00:13:48.923Z,-1.72
2022-12-14T00:18:47.406Z,-1.7
2022-12-14T00:23:47.373Z,-1.68
2022-12-14T00:28:46.734Z,-1.65
2022-12-14T00:33:46.254Z,-1.61
2022-12-14T00:38:46.029Z,-1.59
2022-12-14T00:43:43.765Z,-1.58
2022-12-14T00:48:42.665Z,-1.57
2022-12-14T00:53:41.967Z,-1.53
2022-12-14T00:58:53.285Z,-1.51
2022-12-14T01:03:40.275Z,-1.5
2022-12-14T01:08:39.453Z,-1.49
2022-12-14T01:13:37.629Z,-1.48
2022-12-14T01:18:36.507Z,-1.48
2022-12-14T01:23:35.721Z,-1.46
2022-12-14T01:28:35.111Z,-1.46
2022-12-14T01:33:34.798Z,-1.45
2022-12-14T01:38:33.119Z,-1.43
2022-12-14T01:43:32.347Z,-1.42
2022-12-14T01:48:31.649Z,-1.39
2022-12-14T01:53:31.084Z,-1.38
2022-12-14T01:58:30.833Z,-1.35
2022-12-14T02:03:29.618Z,-1.35
2022-12-14T02:08:29.847Z,-1.35
2022-12-14T02:13:28.762Z,-1.37
2022-12-14T02:18:28.241Z,-1.38
2022-12-14T02:23:28.233Z,-1.39
2022-12-14T02:28:27.342Z,-1.39
2022-12-14T02:33:26.465Z,-1.39
2022-12-14T02:38:25.804Z,-1.38
2022-12-14T02:43:25.367Z,-1.37
2022-12-14T02:48:24.500Z,-1.36
2022-12-14T02:53:24.405Z,-1.36
2022-12-14T02:58:23.588Z,-1.36
2022-12-14T02:59:44.045Z,-1.35
2022-12-14T03:04:43.582Z,-1.35
2022-12-14T03:09:42.583Z,-1.35
2022-12-14T03:14:42.610Z,-1.34
2022-12-14T03:19:41.512Z,-1.32
2022-12-14T03:24:41.028Z,-1.31
2022-12-14T03:29:40.196Z,-1.31
2022-12-14T03:34:39.787Z,-1.3
2022-12-14T03:39:39.350Z,-1.29
2022-12-14T03:44:44.784Z,-1.29
2022-12-14T03:49:38.724Z,-1.28
2022-12-14T03:54:38.837Z,-1.28
2022-12-14T03:59:08.716Z,-1.28
2022-12-14T04:04:07.901Z,-1.27
2022-12-14T04:09:07.071Z,-1.26
2022-12-14T04:14:06.709Z,-1.24
2022-12-14T04:19:06.588Z,-1.23
2022-12-14T04:24:04.351Z,-1.24
2022-12-14T04:29:04.572Z,-1.23
2022-12-14T04:34:04.165Z,-1.23
2022-12-14T04:39:03.531Z,-1.23
2022-12-14T04:44:01.749Z,-1.23
2022-12-14T04:49:01.266Z,-1.22
2022-12-14T04:54:00.095Z,-1.21
2022-12-14T04:58:48.528Z,-1.22
2022-12-14T05:03:48.482Z,-1.23
2022-12-14T05:08:46.903Z,-1.25
2022-12-14T05:13:45.620Z,-1.26
2022-12-14T05:18:45.559Z,-1.26
2022-12-14T05:23:45.170Z,-1.26
2022-12-14T05:28:48.840Z,-1.26
2022-12-14T05:33:44.281Z,-1.28
2022-12-14T05:38:43.631Z,-1.27
2022-12-14T05:43:42.837Z,-1.3
2022-12-14T05:48:46.110Z,-1.32
2022-12-14T05:53:41.897Z,-1.31
2022-12-14T05:58:41.736Z,-1.33
2022-12-14T06:03:40.533Z,-1.35
2022-12-14T06:08:39.962Z,-1.37
2022-12-14T06:13:39.609Z,-1.38
2022-12-14T06:18:39.146Z,-1.38
2022-12-14T06:23:38.860Z,-1.39
2022-12-14T06:28:38.098Z,-1.41
2022-12-14T06:33:37.349Z,-1.45
2022-12-14T06:38:37.138Z,-1.46
2022-12-14T06:43:36.322Z,-1.49
2022-12-14T06:48:36.215Z,-1.51
2022-12-14T06:53:35.442Z,-1.53
2022-12-14T06:58:35.424Z,-1.55
2022-12-14T06:59:56.994Z,-1.56
2022-12-14T07:04:54.934Z,-1.58
2022-12-14T07:09:53.853Z,-1.58
2022-12-14T07:14:53.286Z,-1.58
2022-12-14T07:19:52.717Z,-1.6
2022-12-14T07:24:53.246Z,-1.59
2022-12-14T07:29:50.854Z,-1.58
2022-12-14T07:34:49.733Z,-1.57
2022-12-14T07:39:49.199Z,-1.57
2022-12-14T07:44:48.356Z,-1.58
2022-12-14T07:49:48.546Z,-1.59
2022-12-14T07:54:46.323Z,-1.59
2022-12-14T07:58:53.697Z,-1.61
2022-12-14T08:03:53.317Z,-1.62
2022-12-14T08:08:52.450Z,-1.6
2022-12-14T08:13:52.905Z,-1.59
2022-12-14T08:18:50.416Z,-1.58
2022-12-14T08:23:49.457Z,-1.57
2022-12-14T08:28:48.778Z,-1.55
2022-12-14T08:33:47.699Z,-1.55
2022-12-14T08:38:46.399Z,-1.56
2022-12-14T08:43:45.343Z,-1.59
2022-12-14T08:48:44.434Z,-1.6
2022-12-14T08:53:43.903Z,-1.53
2022-12-14T08:58:43.633Z,-1.46
2022-12-14T09:03:42.074Z,-1.47
2022-12-14T09:08:40.939Z,-1.49
2022-12-14T09:13:40.056Z,-1.52
2022-12-14T09:18:39.354Z,-1.53
2022-12-14T09:23:39.094Z,-1.53
2022-12-14T09:28:37.582Z,-1.53
2022-12-14T09:33:36.440Z,-1.56
2022-12-14T09:38:35.683Z,-1.54
2022-12-14T09:43:36.840Z,-1.52
2022-12-14T09:48:34.843Z,-1.52
2022-12-14T09:53:33.510Z,-1.54
2022-12-14T09:58:32.597Z,-1.54
2022-12-14T10:03:31.960Z,-1.53
2022-12-14T10:08:31.552Z,-1.54
2022-12-14T10:13:30.118Z,-1.5
2022-12-14T10:23:29.097Z,-1.48
2022-12-14T10:28:29.024Z,-1.5
2022-12-14T10:33:27.816Z,-1.59
2022-12-14T10:38:27.386Z,-1.55
2022-12-14T10:43:26.969Z,-1.51
2022-12-14T10:48:26.433Z,-1.44
2022-12-14T10:53:25.627Z,-1.4
2022-12-14T10:58:25.125Z,-1.36
2022-12-14T11:00:03.237Z,-1.33
2022-12-14T11:04:45.946Z,-1.24
2022-12-14T11:09:44.740Z,-1.16
2022-12-14T11:14:44.548Z,-1.13
2022-12-14T11:19:43.733Z,-1.09
2022-12-14T11:24:43.212Z,-1.04
2022-12-14T11:29:43.037Z,-1.04
2022-12-14T11:34:42.535Z,-1.01
2022-12-14T11:39:41.609Z,-1.05
2022-12-14T11:44:41.629Z,-1.09
2022-12-14T11:49:40.062Z,-1.17
2022-12-14T11:54:39.059Z,-1.26
2022-12-14T11:59:11.857Z,-1.36
2022-12-14T12:04:11.479Z,-1.41
2022-12-14T12:09:11.235Z,-1.4
2022-12-14T12:14:08.929Z,-1.33
2022-12-14T12:19:11.219Z,-1.37
2022-12-14T12:24:07.013Z,-1.5
2022-12-14T12:29:06.621Z,-1.56
2022-12-14T12:34:06.948Z,-1.59
2022-12-14T12:39:04.523Z,-1.61
2022-12-14T12:44:03.528Z,-1.63
2022-12-14T12:49:02.879Z,-1.57
2022-12-14T12:54:02.817Z,-1.53
2022-12-14T12:58:53.009Z,-1.46
2022-12-14T13:03:49.139Z,-1.36
2022-12-14T13:08:49.908Z,-1.32
2022-12-14T13:13:47.412Z,-1.32
2022-12-14T13:19:01.780Z,-1.35
2022-12-14T13:23:47.226Z,-1.35
2022-12-14T13:28:45.526Z,-1.34
2022-12-14T13:33:44.797Z,-1.39
2022-12-14T13:38:44.087Z,-1.42
2022-12-14T13:43:44.040Z,-1.44
2022-12-14T13:48:42.230Z,-1.46
2022-12-14T13:53:41.472Z,-1.44
2022-12-14T13:58:40.156Z,-1.43
2022-12-14T14:00:01.044Z,-1.47
2022-12-14T14:05:00.696Z,-1.47
2022-12-14T14:09:58.817Z,-1.46
2022-12-14T14:14:57.901Z,-1.46
2022-12-14T14:19:56.994Z,-1.46
2022-12-14T14:24:56.552Z,-1.46
2022-12-14T14:29:55.867Z,-1.46
2022-12-14T14:34:54.510Z,-1.45
2022-12-14T14:39:59.102Z,-1.45
2022-12-14T14:44:52.682Z,-1.47
2022-12-14T14:49:51.875Z,-1.47
2022-12-14T14:55:28.142Z,-1.47
2022-12-14T14:59:11.401Z,-1.49
2022-12-14T15:04:11.017Z,-1.49
2022-12-14T15:09:10.128Z,-1.53
2022-12-14T15:14:09.747Z,-1.55
2022-12-14T15:19:09.037Z,-1.6
2022-12-14T15:24:09.194Z,-1.64
2022-12-14T15:29:07.973Z,-1.65
2022-12-14T15:34:07.434Z,-1.64
2022-12-14T15:39:06.679Z,-1.65
2022-12-14T15:44:06.249Z,-1.65
2022-12-14T15:49:06.054Z,-1.74
2022-12-14T15:54:05.068Z,-2.53
2022-12-14T15:58:55.240Z,-3.5
2022-12-14T16:03:54.992Z,-5.08
2022-12-14T16:08:54.116Z,-6.2
2022-12-14T16:13:54.436Z,-6.71
2022-12-14T16:19:26.291Z,-7.94
